METAR Data
IDs: Format: Raw Decoded Include TAF

Data at: 0833 UTC 20 Sep 2018

PASA 200756Z AUTO 00000KT 9SM OVC060 09/08 A3002 RMK AO2 SLP167 T00890083 $
PASA 200731Z AUTO 00000KT 9SM SCT011 OVC055 09/08 A3002 RMK AO2 $
PASA 200715Z AUTO 00000KT 7SM BKN011 OVC060 09/08 A3002 RMK AO2 $
PASA 200656Z AUTO 00000KT 6SM BR FEW016 BKN042 OVC060 09/08 A3002 RMK AO2 SLP168 T00890083 $
PASA 200649Z AUTO 00000KT 6SM BR SCT016 BKN042 OVC060 09/08 A3002 RMK AO2 $
PASA 200633Z AUTO 06003KT 7SM OVC016 09/08 A3002 RMK AO2 $
PASA 200614Z AUTO 07003KT 5SM BR OVC014 09/09 A3002 RMK AO2 $
PASA 200556Z AUTO 07004KT 5SM BR OVC017 09/08 A3002 RMK AO2 SLP169 60001 T00890083 10106 20089 56002 $
PASA 200520Z AUTO 05004KT 10SM OVC015 09/08 A3002 RMK AO2 $
PASA 200511Z AUTO 06003KT 10SM OVC013 09/08 A3002 RMK AO2 $
PASA 200356Z AUTO 18004KT 10SM OVC015 10/08 A3003 RMK AO2 RAE20B42E54 SLP170 P0000 T01000083 $
PASA 200305Z AUTO 21005KT 10SM -RA BKN013 OVC075 10/08 A3003 RMK AO2 P0000 $
PASA 200156Z AUTO 19003KT 10SM -RA BKN015 OVC044 10/08 A3004 RMK AO2 SLP174 P0001 T01000083 $
PASA 200152Z AUTO 19003KT 10SM -RA BKN015 OVC044 10/08 A3004 RMK AO2 P0001 $
PASA 200056Z AUTO 20007KT 10SM -RA OVC026 10/08 A3004 RMK AO2 SLP176 P0000 T01000083 $
PASA 192356Z AUTO 19007KT 10SM -RA OVC055 11/08 A3005 RMK AO2 SLP180 P0001 60001 T01060083 10106 20094 58007 $
PASA 192256Z AUTO 24006KT 8SM -RA FEW034 BKN041 OVC060 11/09 A3006 RMK AO2 SLP182 P0000 T01060089 $
PASA 192156Z AUTO 23007KT 9SM -RA OVC040 11/09 A3007 RMK AO2 RAB26 SLP184 P0000 T01060089 $
PASA 192109Z AUTO 24011KT 10SM FEW011 SCT021 BKN040 11/09 A3007 RMK AO2 $
PASA 192056Z AUTO 24011KT 10SM FEW011 BKN021 11/09 A3007 RMK AO2 RAE00 SLP186 P0000 60000 T01060089 58002 $
PASA 191956Z AUTO 24011KT 10SM -RA BKN015 OVC040 10/09 A3008 RMK AO2 RAB45 SLP187 P0000 T01000089 $
PASA 191923Z AUTO 24011KT 8SM SCT012 BKN019 OVC040 10/09 A3008 RMK AO2 $
PASA 191856Z AUTO 24011KT 5SM BR OVC014 10/09 A3008 RMK AO2 RAB29E45 SLP189 P0000 T01000089 $
PASA 191756Z AUTO 23013KT 9SM OVC010 09/09 A3008 RMK AO2 RAE50 CIG 007V014 SLP188 P0000 60005 T00940089 10100 20094 55001 $
PASA 191746Z AUTO 24012KT 6SM -RA BR BKN008 OVC012 09/09 A3008 RMK AO2 CIG 005V011 P0000 $
PASA 191717Z AUTO 24012KT 2SM -RA BR OVC006 09/09 A3008 RMK AO2 VIS 1 1/4V4 CIG 004V010 P0000 $
PASA 191701Z AUTO 24012KT 1 3/4SM -RA BR OVC006 09/09 A3008 RMK AO2 P0000 $
PASA 191556Z AUTO 25009KT 4SM -RA BR BKN006 OVC012 09/09 A3008 RMK AO2 CIG 005V010 SLP189 P0001 T00940089 $
PASA 191548Z AUTO 24009KT 3SM -RA BR BKN006 OVC012 09/09 A3008 RMK AO2 P0001 $
PASA 191524Z AUTO 24010KT 2 1/2SM -RA BR OVC008 09/09 A3009 RMK AO2 CIG 005V010 P0000 $
PASA 191456Z AUTO 24009KT 9SM -RA BKN008 OVC014 09/09 A3008 RMK AO2 CIG 005V011 SLP190 P0001 60003 T00940089 56005 $
PASA 191256Z AUTO 24012KT 5SM -RA BR OVC006 09/09 A3009 RMK AO2 SLP193 P0001 T00940089 $
PASA 191235Z AUTO 24012KT 10SM -RA BKN008 BKN014 OVC019 10/09 A3010 RMK AO2 P0000 $
PASA 191105Z AUTO 24013KT 10SM -RA OVC011 09/09 A3010 RMK AO2 P0000 $
PASA 191038Z AUTO 24014KT 10SM -RA OVC007 09/09 A3010 RMK AO2 RAB27 CIG 005V011 P0000 $
PASA 191030Z AUTO 24014KT 3SM -RA BR OVC005 09/09 A3010 RMK AO2 RAB27 CIG 005V010 P0000 $
PASA 190956Z AUTO 24012KT 7SM OVC007 09/09 A3010 RMK AO2 RAB0858E53 SLP195 P0000 T00940089 $
PASA 190856Z AUTO 23013KT 4SM BR SCT009 BKN019 OVC024 09/09 A3010 RMK AO2 SLP195 60000 T00940089 401060050 56006 $
PASA 190844Z AUTO 23016KT 10SM FEW009 OVC019 10/09 A3010 RMK AO2 $
PASA 190756Z AUTO 23016KT 10SM BKN019 BKN026 OVC032 09/08 A3010 RMK AO2 RAE44 SLP195 P0000 T00940083 $
PASA 190656Z AUTO 22016KT 5SM -RA BR BKN008 OVC041 09/08 A3011 RMK AO2 CIG 007V014 SLP198 P0000 T00940083 $
PASA 190653Z AUTO 23018KT 4SM -RA BR BKN008 OVC041 09/08 A3011 RMK AO2 CIG 007V014 P0000 $
PASA 190607Z AUTO 24012KT 6SM -RA BR OVC007 09/08 A3012 RMK AO2 CIG 006V012 P0000 $
PASA 190556Z AUTO 24012KT 2 1/2SM -RA BR OVC007 09/08 A3012 RMK AO2 VIS 1 1/2V5 RAE0459B32 CIG 006V010 SLP202 P0000 60000 T00890083 10106 20089 55005 $
PASA 190541Z AUTO 24012KT 2SM -RA BR OVC007 09/08 A3012 RMK AO2 RAE0459B32 CIG 007V011 P0000 $
PASA 190519Z AUTO 23015KT 10SM BKN009 OVC013 09/08 A3012 RMK AO2 RAE0459 CIG 008V011 P0000 $
PASA 190414Z AUTO 22012KT 5SM BR BKN011 OVC015 09/08 A3012 RMK AO2 RAE06 CIG 007V013 P0000 $
PASA 190356Z AUTO 23009KT 4SM -RA BR OVC009 09/08 A3013 RMK AO2 CIG 007V011 SLP204 P0000 T00890083 $
PASA 190353Z AUTO 24008KT 3SM -RA BR BKN009 OVC013 09/08 A3013 RMK AO2 CIG 007V011 P0000 $
PASA 190346Z AUTO 25008KT 1 3/4SM -RA BR BKN009 OVC014 09/08 A3013 RMK AO2 CIG 007V011 P0000 $
PASA 190310Z AUTO 23010KT 3SM -RA BR FEW011 BKN029 OVC036 09/08 A3013 RMK AO2 P0000 $
PASA 190256Z AUTO 24009KT 3SM -RA BR FEW025 OVC036 09/08 A3014 RMK AO2 RAB52 SLP207 P0000 60000 T00890078 56005 $
PASA 190209Z AUTO 23012KT 10SM SCT026 OVC046 09/08 A3014 RMK AO2 $
PASA 190139Z AUTO 23010KT 9SM -RA FEW018 BKN030 OVC050 10/08 A3014 RMK AO2 RAB24 P0000 $
PASA 190125Z AUTO 23013KT 4SM -RA BR FEW018 BKN027 OVC055 10/08 A3014 RMK AO2 RAB24 P0000 $
PASA 190056Z AUTO 22012KT 10SM FEW033 OVC055 11/08 A3014 RMK AO2 RAE00 SLP207 P0000 T01060078 $
PASA 182356Z AUTO 24009KT 5SM -RA BR SCT017 BKN033 OVC043 09/08 A3015 RMK AO2 RAB36 SLP212 P0000 60000 T00940078 10106 20078 58004 $
PASA 182256Z AUTO 24010KT 10SM FEW016 BKN044 OVC049 11/08 A3016 RMK AO2 SLP215 T01060078 $
PASA 182248Z AUTO 24009KT 10SM FEW018 OVC045 10/08 A3016 RMK AO2 $
PASA 182217Z AUTO 23009KT 10SM FEW018 BKN029 OVC050 10/07 A3016 RMK AO2 $
PASA 182156Z AUTO 23011KT 10SM FEW032 OVC050 11/07 A3016 RMK AO2 SLP215 T01060072 $
PASA 182139Z AUTO 23011KT 10SM SCT015 BKN033 OVC050 10/07 A3015 RMK AO2 $
PASA 182116Z AUTO 24005KT 7SM BKN015 OVC036 09/07 A3016 RMK AO2 $